Pagina principale
METAR-TAF:

METAR-TAF

Aeroporti :

Aeroporto di Ėlista

Ėlista, Russia

latitudine: 46-22N, longitudine: 044-20E, altezza: 150 m

Osservazione

Il bollettino è stato emesso 41 minuti fa, alle 10:30 UTC
Vento 25 kt da est
Temperature 32°C
Umidità 26%
Pressione 1006 hPa
Visibilità 10 km o più
nessuna nube inferiore a 1500 m e nessun cumulonembo

METAR: URWI 291030Z 10013MPS CAVOK 32/10 Q1006 R09/010065 TEMPO 14015G20MPS

Ora: 15:11 (11:11 UTC)

Previsione

Il bollettino è stato emesso 3 ore e 11 minuti fa, alle 08:00 UTC
Previsione valida dal 29 alle 09 UTC al 29 alle 18 UTC
Vento 14 kt da est con raffiche fino a 27 kt
Visibilità 10 km o più
Nubi sparse ad un'altezza di 3000 ft
Temporaneamente
dal 29 alle 09 UTC al 29 alle 15 UTC
Vento 17 kt da est/sud-est con raffiche fino a 31 kt

TAF: URWI 290800Z 2909/2918 10007G14MPS 9999 SCT030 TEMPO 2909/2915 12009G16MPS

Osservazioni e previsioni meteorologiche di più di 4000 aeroporti (messaggi METAR e TAF).

Le stazioni disponibili sono rappresentate dai dischi gialli e rossi sulla carta.

Puntare il mouse per vedere il nome della stazione.

Clicca sopra per visualizzare le osservazioni e previsioni meteorologiche.

Per cambiare la mappa : fare clic sui pulsanti verdi con una croce nera per ingrandire, il pulsante verde con un trattino per diminuire, o sulla freccia verde per le mappe adiacenti.


METAR-TAF: